createdAt,value
2019-05-16T00:01:30.033Z,102383.53
2019-05-16T00:04:02.577Z,102392.50
2019-05-16T00:06:31.984Z,102393.47
2019-05-16T00:09:01.449Z,102393.32
2019-05-16T00:11:31.016Z,102383.38
2019-05-16T00:14:00.459Z,102386.33
2019-05-16T00:16:29.901Z,102381.83
2019-05-16T00:18:59.450Z,102382.78
2019-05-16T00:21:28.910Z,102380.70
2019-05-16T00:23:58.733Z,102372.28
2019-05-16T00:26:28.503Z,102369.88
2019-05-16T00:28:58.949Z,102364.31
2019-05-16T00:31:28.782Z,102355.84
2019-05-16T00:33:58.314Z,102355.95
2019-05-16T00:36:27.889Z,102352.93
2019-05-16T00:38:59.146Z,102352.43
2019-05-16T00:41:30.021Z,102340.48
2019-05-16T00:43:59.471Z,102347.90
2019-05-16T00:46:28.896Z,102342.94
2019-05-16T00:49:00.981Z,102346.75
2019-05-16T00:51:31.597Z,102344.23
2019-05-16T00:54:03.589Z,102335.69
2019-05-16T00:56:33.781Z,102334.86
2019-05-16T00:59:07.767Z,102334.79
2019-05-16T01:01:38.981Z,102330.63
2019-05-16T01:04:08.972Z,102327.53
2019-05-16T01:06:40.678Z,102316.98
2019-05-16T01:09:11.288Z,102319.42
2019-05-16T01:11:41.058Z,102315.20
2019-05-16T01:14:11.665Z,102308.06
2019-05-16T01:16:41.091Z,102313.77
2019-05-16T01:19:10.717Z,102305.60
2019-05-16T01:21:40.164Z,102309.47
2019-05-16T01:24:09.571Z,102308.30
2019-05-16T01:26:39.352Z,102299.38
2019-05-16T01:29:11.655Z,102299.23
2019-05-16T01:31:40.011Z,102303.59
2019-05-16T01:34:09.697Z,102304.05
2019-05-16T01:36:40.803Z,102293.89
2019-05-16T01:39:10.586Z,102288.86
2019-05-16T01:41:41.428Z,102291.81
2019-05-16T01:44:10.858Z,102288.27
2019-05-16T01:46:40.281Z,102285.88
2019-05-16T01:49:09.927Z,102287.70
2019-05-16T01:51:39.472Z,102280.67
2019-05-16T01:54:08.992Z,102274.45
2019-05-16T01:56:41.003Z,102272.55
2019-05-16T01:59:10.431Z,102267.63
2019-05-16T02:01:39.876Z,102264.74
2019-05-16T02:04:12.241Z,102266.26
2019-05-16T02:06:50.412Z,102262.98
2019-05-16T02:09:11.845Z,102258.70
2019-05-16T02:11:41.547Z,102258.64
2019-05-16T02:14:10.999Z,102254.05
2019-05-16T02:16:40.406Z,102254.52
2019-05-16T02:19:09.903Z,102250.43
2019-05-16T02:21:39.325Z,102251.23
2019-05-16T02:24:09.078Z,102249.45
2019-05-16T02:26:41.374Z,102246.35
2019-05-16T02:29:13.775Z,102237.73
2019-05-16T02:31:42.424Z,102236.61
2019-05-16T02:34:12.210Z,102241.63
2019-05-16T02:36:41.705Z,102237.94
2019-05-16T02:39:11.538Z,102237.86
2019-05-16T02:41:45.616Z,102236.80
2019-05-16T02:44:12.369Z,102233.13
2019-05-16T02:46:42.287Z,102236.87
2019-05-16T02:49:11.923Z,102230.34
2019-05-16T02:51:41.403Z,102232.39
2019-05-16T02:54:11.266Z,102221.56
2019-05-16T02:56:41.772Z,102221.56
2019-05-16T02:59:12.079Z,102220.96
2019-05-16T03:01:41.602Z,102216.22
2019-05-16T03:04:11.346Z,102216.75
2019-05-16T03:06:41.478Z,102218.62
2019-05-16T03:09:11.583Z,102211.36
2019-05-16T03:11:42.859Z,102208.61
2019-05-16T03:14:14.483Z,102210.48
2019-05-16T03:16:46.812Z,102207.08
2019-05-16T03:19:16.892Z,102199.39
2019-05-16T03:21:47.314Z,102200.01
2019-05-16T03:24:16.824Z,102199.06
2019-05-16T03:26:46.326Z,102196.39
2019-05-16T03:29:15.757Z,102195.25
2019-05-16T03:31:45.629Z,102193.65
2019-05-16T03:34:17.012Z,102190.11
2019-05-16T03:36:46.588Z,102182.50
2019-05-16T03:39:16.010Z,102177.39
2019-05-16T03:41:45.631Z,102182.77
2019-05-16T03:44:15.111Z,102180.02
2019-05-16T03:46:45.255Z,102171.05
2019-05-16T03:49:14.769Z,102169.98
2019-05-16T03:51:44.194Z,102164.97
2019-05-16T03:54:13.556Z,102164.66
2019-05-16T03:56:43.096Z,102158.97
2019-05-16T03:59:12.475Z,102154.97
2019-05-16T04:01:41.880Z,102157.83
2019-05-16T04:04:12.106Z,102148.28
2019-05-16T04:06:41.923Z,102151.08
2019-05-16T04:09:12.495Z,102150.27
2019-05-16T04:11:42.975Z,102146.88
2019-05-16T04:14:12.604Z,102145.80
2019-05-16T04:16:42.047Z,102144.51
2019-05-16T04:19:11.882Z,102148.78
2019-05-16T04:21:42.358Z,102148.78
2019-05-16T04:24:12.594Z,102146.80
2019-05-16T04:26:42.318Z,102145.65
2019-05-16T04:29:12.226Z,102147.64
2019-05-16T04:31:41.892Z,102146.14
2019-05-16T04:34:12.003Z,102144.53
2019-05-16T04:36:41.598Z,102140.41
2019-05-16T04:39:11.760Z,102135.42
2019-05-16T04:41:41.716Z,102137.94
2019-05-16T04:44:11.889Z,102138.54
2019-05-16T04:46:41.505Z,102137.77
2019-05-16T04:49:11.599Z,102134.75
2019-05-16T04:51:41.525Z,102136.72
2019-05-16T04:54:11.739Z,102135.89
2019-05-16T04:56:41.685Z,102131.31
2019-05-16T04:59:16.248Z,102133.23
2019-05-16T05:01:42.378Z,102134.74
2019-05-16T05:04:15.529Z,102134.74
2019-05-16T05:06:43.221Z,102127.12
2019-05-16T05:09:12.745Z,102127.41
2019-05-16T05:11:42.385Z,102131.55
2019-05-16T05:14:12.146Z,102134.74
2019-05-16T05:16:41.638Z,102132.95
2019-05-16T05:19:11.304Z,102125.10
2019-05-16T05:21:41.193Z,102126.38
2019-05-16T05:24:11.108Z,102118.36
2019-05-16T05:26:41.723Z,102110.20
2019-05-16T05:29:11.096Z,102110.20
2019-05-16T05:31:44.887Z,102113.91
2019-05-16T05:34:11.747Z,102118.44
2019-05-16T05:36:41.180Z,102121.30
2019-05-16T05:39:15.244Z,102122.70
2019-05-16T05:41:41.882Z,102117.05
2019-05-16T05:44:11.296Z,102115.79
2019-05-16T05:46:40.745Z,102114.78
2019-05-16T05:49:10.759Z,102121.52
2019-05-16T05:51:40.717Z,102115.45
2019-05-16T05:54:11.074Z,102119.69
2019-05-16T05:56:40.719Z,102117.38
2019-05-16T05:59:11.477Z,102106.47
2019-05-16T06:01:41.085Z,102113.33
2019-05-16T06:04:10.791Z,102107.59
2019-05-16T06:06:42.837Z,102107.97
2019-05-16T06:09:25.315Z,102107.45
2019-05-16T06:11:42.887Z,102110.31
2019-05-16T06:14:12.336Z,102109.52
2019-05-16T06:16:41.738Z,102108.02
2019-05-16T06:19:11.303Z,102107.20
2019-05-16T06:21:44.671Z,102107.63
2019-05-16T06:24:11.876Z,102098.56
2019-05-16T06:26:41.489Z,102101.73
2019-05-16T06:29:10.933Z,102095.34
2019-05-16T06:31:40.801Z,102099.98
2019-05-16T06:34:15.118Z,102100.73
2019-05-16T06:36:42.038Z,102091.69
2019-05-16T06:39:12.419Z,102076.23
2019-05-16T06:41:41.940Z,102074.91
2019-05-16T06:44:11.364Z,102079.94
2019-05-16T06:46:56.322Z,102069.55
2019-05-16T06:49:12.178Z,102068.44
2019-05-16T06:51:41.773Z,102055.45
2019-05-16T06:54:11.477Z,102071.83
2019-05-16T06:56:40.947Z,102071.27
2019-05-16T06:59:10.533Z,102076.56
2019-05-16T07:01:40.552Z,102076.42
2019-05-16T07:04:10.631Z,102073.17
2019-05-16T07:06:54.741Z,102072.94
2019-05-16T07:09:11.458Z,102067.09
2019-05-16T07:11:41.139Z,102064.91
2019-05-16T07:14:10.818Z,102076.33
2019-05-16T07:16:40.685Z,102063.78
2019-05-16T07:19:10.701Z,102052.44
2019-05-16T07:21:40.338Z,102056.00
2019-05-16T07:24:10.910Z,102049.85
2019-05-16T07:26:40.879Z,102044.33
2019-05-16T07:29:10.989Z,102040.37
2019-05-16T07:31:40.757Z,102037.05
2019-05-16T07:34:12.676Z,102036.76
2019-05-16T07:36:41.483Z,102044.81
2019-05-16T07:39:11.052Z,102035.78
2019-05-16T07:41:40.990Z,102040.65
2019-05-16T07:44:11.020Z,102040.23
2019-05-16T07:46:44.518Z,102034.09
2019-05-16T07:49:12.136Z,102032.78
2019-05-16T07:51:41.601Z,102025.67
2019-05-16T07:54:11.092Z,102022.65
2019-05-16T07:56:41.100Z,102023.86
2019-05-16T07:59:10.630Z,102024.19
2019-05-16T08:01:41.693Z,102022.30
2019-05-16T08:04:11.429Z,102026.01
2019-05-16T08:06:41.690Z,102008.83
2019-05-16T08:09:12.697Z,102019.23
2019-05-16T08:11:42.762Z,102015.35
2019-05-16T08:14:12.264Z,102011.67
2019-05-16T08:16:41.706Z,102013.23
2019-05-16T08:19:11.175Z,102016.00
2019-05-16T08:24:15.087Z,102009.15
2019-05-16T08:26:43.685Z,102002.68
2019-05-16T08:29:13.605Z,101997.41
2019-05-16T08:31:43.421Z,101999.03
2019-05-16T08:34:12.949Z,101998.56
2019-05-16T08:36:42.407Z,101989.73
2019-05-16T08:39:11.947Z,101985.58
2019-05-16T08:41:42.450Z,101989.50
2019-05-16T08:44:12.689Z,101989.02
2019-05-16T08:46:44.013Z,101988.55
2019-05-16T08:49:13.623Z,101981.79
2019-05-16T08:50:06.462Z,102010.09
2019-05-16T08:51:43.067Z,101983.70
2019-05-16T08:54:13.650Z,101981.43
2019-05-16T08:56:44.564Z,101988.06
2019-05-16T08:59:14.271Z,101969.39
2019-05-16T09:01:52.153Z,101961.66
2019-05-16T09:04:15.359Z,101964.99
2019-05-16T09:06:44.822Z,101954.58
2019-05-16T09:09:29.624Z,101950.48
2019-05-16T09:11:48.624Z,101947.42
2019-05-16T09:14:17.342Z,101940.49
2019-05-16T09:16:47.966Z,101935.55
2019-05-16T09:19:17.659Z,101932.63
2019-05-16T09:21:47.580Z,101925.53
2019-05-16T09:24:17.992Z,101924.34
2019-05-16T09:26:47.946Z,101922.77
2019-05-16T09:29:17.406Z,101902.58
2019-05-16T09:32:11.460Z,101903.88
2019-05-16T09:34:18.441Z,101902.72
2019-05-16T09:36:48.271Z,101889.76
2019-05-16T09:39:18.018Z,101888.41
2019-05-16T09:41:54.408Z,101880.33
2019-05-16T09:44:18.741Z,101882.77
2019-05-16T09:46:48.262Z,101882.36
2019-05-16T09:49:24.251Z,101887.94
2019-05-16T09:51:49.073Z,101879.90
2019-05-16T09:54:18.491Z,101864.17
2019-05-16T09:56:48.323Z,101879.13
2019-05-16T09:59:17.785Z,101876.23
2019-05-16T10:01:47.961Z,101864.08
2019-05-16T10:04:17.768Z,101874.31
2019-05-16T10:06:47.615Z,101872.33
2019-05-16T10:09:17.669Z,101860.52
2019-05-16T10:11:49.424Z,101859.03
2019-05-16T10:14:18.473Z,101861.93
2019-05-16T10:16:48.055Z,101861.93
2019-05-16T10:19:17.789Z,101856.13
2019-05-16T10:21:47.301Z,101858.07
2019-05-16T10:24:16.759Z,101852.12
2019-05-16T10:26:48.528Z,101852.12
2019-05-16T10:29:18.634Z,101848.46
2019-05-16T10:31:52.859Z,101842.17
2019-05-16T10:34:19.633Z,101860.55
2019-05-16T10:36:49.040Z,101866.75
2019-05-16T10:39:18.489Z,101858.86
2019-05-16T10:41:48.057Z,101860.78
2019-05-16T10:44:17.758Z,101861.20
2019-05-16T10:46:48.051Z,101858.48
2019-05-16T10:49:32.838Z,101862.02
2019-05-16T10:51:48.948Z,101861.88
2019-05-16T10:54:18.730Z,101859.25
2019-05-16T10:56:48.640Z,101861.25
2019-05-16T11:01:49.397Z,101869.17
2019-05-16T11:04:29.134Z,101873.33
2019-05-16T11:06:50.183Z,101857.83
2019-05-16T11:09:20.080Z,101851.23
2019-05-16T11:11:49.968Z,101836.83
2019-05-16T11:14:19.449Z,101825.84
2019-05-16T11:16:48.910Z,101820.25
2019-05-16T11:19:24.283Z,101801.45
2019-05-16T11:21:49.724Z,101810.32
2019-05-16T11:24:19.222Z,101814.66
2019-05-16T11:26:48.901Z,101804.73
2019-05-16T11:29:18.342Z,101811.19
2019-05-16T11:31:47.820Z,101814.58
2019-05-16T11:34:17.488Z,101821.64
2019-05-16T11:36:47.835Z,101819.67
2019-05-16T11:39:17.644Z,101811.99
2019-05-16T11:41:47.643Z,101800.34
2019-05-16T11:44:17.782Z,101803.20
2019-05-16T11:46:49.039Z,101772.13
2019-05-16T11:49:18.707Z,101782.66
2019-05-16T11:51:48.098Z,101769.77
2019-05-16T11:54:17.614Z,101768.23
2019-05-16T11:56:47.107Z,101764.02
2019-05-16T11:59:17.245Z,101763.36
2019-05-16T12:01:47.536Z,101759.13
2019-05-16T12:04:17.599Z,101758.09
2019-05-16T12:06:47.144Z,101751.30
2019-05-16T12:09:17.745Z,101750.52
2019-05-16T12:11:47.668Z,101752.14
2019-05-16T12:14:19.505Z,101752.64
2019-05-16T12:16:49.450Z,101755.96
2019-05-16T12:19:19.096Z,101752.91
2019-05-16T12:21:48.564Z,101746.25
2019-05-16T12:24:32.316Z,101741.91
2019-05-16T12:26:49.338Z,101745.70
2019-05-16T12:29:18.823Z,101734.69
2019-05-16T12:31:57.474Z,101723.86
2019-05-16T12:34:19.605Z,101724.32
2019-05-16T12:36:49.071Z,101712.12
2019-05-16T12:39:18.601Z,101711.42
2019-05-16T12:41:49.178Z,101707.64
2019-05-16T12:44:19.024Z,101707.80
2019-05-16T12:46:48.569Z,101696.95
2019-05-16T12:49:18.171Z,101698.48
2019-05-16T12:51:47.598Z,101688.29
2019-05-16T12:54:18.242Z,101690.55
2019-05-16T12:56:48.531Z,101684.16
2019-05-16T12:59:21.501Z,101670.59
2019-05-16T13:01:49.276Z,101670.04
2019-05-16T13:04:19.449Z,101658.36
2019-05-16T13:06:49.009Z,101658.14
2019-05-16T13:09:18.727Z,101649.05
2019-05-16T13:11:48.436Z,101645.16
2019-05-16T13:14:17.829Z,101649.98
2019-05-16T13:16:47.577Z,101649.42
2019-05-16T13:19:18.154Z,101632.93
2019-05-16T13:21:48.197Z,101633.34
2019-05-16T13:24:18.659Z,101622.11
2019-05-16T13:26:48.694Z,101616.72
2019-05-16T13:29:18.343Z,101608.33
2019-05-16T13:31:48.088Z,101602.83
2019-05-16T13:34:18.055Z,101592.63
2019-05-16T13:36:47.747Z,101584.94
2019-05-16T13:39:17.332Z,101577.33
2019-05-16T13:41:46.884Z,101561.08
2019-05-16T13:44:22.638Z,101568.03
2019-05-16T13:46:47.592Z,101571.39
2019-05-16T13:49:18.008Z,101555.75
2019-05-16T13:51:47.904Z,101555.36
2019-05-16T13:54:17.797Z,101552.21
2019-05-16T13:56:48.358Z,101555.48
2019-05-16T13:59:18.135Z,101545.77
2019-05-16T14:01:47.612Z,101562.15
2019-05-16T14:04:17.539Z,101563.47
2019-05-16T14:06:47.714Z,101560.08
2019-05-16T14:09:17.268Z,101552.70
2019-05-16T14:11:47.628Z,101563.38
2019-05-16T14:14:32.223Z,101547.95
2019-05-16T14:16:48.315Z,101556.88
2019-05-16T14:19:18.020Z,101558.41
2019-05-16T14:21:50.901Z,101561.19
2019-05-16T14:24:20.318Z,101549.42
2019-05-16T14:26:50.270Z,101571.79
2019-05-16T14:29:19.719Z,101553.59
2019-05-16T14:31:49.173Z,101552.55
2019-05-16T14:34:18.781Z,101555.98
2019-05-16T14:36:48.270Z,101556.38
2019-05-16T14:39:19.264Z,101549.11
2019-05-16T14:41:49.321Z,101549.27
2019-05-16T14:44:18.788Z,101543.09
2019-05-16T14:46:48.217Z,101554.12
2019-05-16T14:49:17.747Z,101533.12
2019-05-16T14:51:47.907Z,101542.23
2019-05-16T14:54:17.475Z,101550.25
2019-05-16T14:56:47.696Z,101541.28
2019-05-16T14:59:17.290Z,101523.94
2019-05-16T15:01:47.442Z,101517.28
2019-05-16T15:04:17.349Z,101512.41
2019-05-16T15:06:47.184Z,101506.14
2019-05-16T15:09:17.604Z,101494.06
2019-05-16T15:11:47.452Z,101501.41
2019-05-16T15:14:17.507Z,101499.38
2019-05-16T15:16:49.656Z,101509.14
2019-05-16T15:19:18.712Z,101494.81
2019-05-16T15:21:48.219Z,101502.61
2019-05-16T15:24:17.997Z,101495.06
2019-05-16T15:26:47.598Z,101498.73
2019-05-16T15:29:17.044Z,101501.92
2019-05-16T15:31:46.908Z,101493.10
2019-05-16T15:34:16.529Z,101485.33
2019-05-16T15:36:46.722Z,101482.65
2019-05-16T15:39:16.985Z,101481.95
2019-05-16T15:41:46.946Z,101497.77
2019-05-16T15:44:17.169Z,101489.19
2019-05-16T15:46:47.930Z,101493.11
2019-05-16T15:49:18.287Z,101491.44
2019-05-16T15:51:48.904Z,101487.05
2019-05-16T15:54:23.238Z,101495.63
2019-05-16T15:56:54.228Z,101497.07
2019-05-16T15:59:23.664Z,101491.37
2019-05-16T16:01:53.109Z,101487.19
2019-05-16T16:04:22.572Z,101486.68
2019-05-16T16:06:51.984Z,101486.30
2019-05-16T16:09:21.402Z,101489.34
2019-05-16T16:11:50.838Z,101484.67
2019-05-16T16:14:20.266Z,101484.36
2019-05-16T16:16:51.020Z,101491.73
2019-05-16T16:19:20.722Z,101489.47
2019-05-16T16:21:50.162Z,101481.55
2019-05-16T16:24:19.659Z,101487.25
2019-05-16T16:26:49.079Z,101487.27
2019-05-16T16:29:18.504Z,101491.64
2019-05-16T16:31:48.383Z,101493.30
2019-05-16T16:34:17.961Z,101497.13
2019-05-16T16:36:48.319Z,101497.03
2019-05-16T16:39:17.757Z,101498.64
2019-05-16T16:41:47.990Z,101497.87
2019-05-16T16:44:18.073Z,101492.11
2019-05-16T16:46:47.605Z,101500.14
2019-05-16T16:49:17.492Z,101504.05
2019-05-16T16:51:47.995Z,101499.36
2019-05-16T16:54:18.852Z,101489.69
2019-05-16T16:56:48.612Z,101497.81
2019-05-16T16:59:18.093Z,101495.70
2019-05-16T17:01:48.016Z,101495.65
2019-05-16T17:04:17.685Z,101485.31
2019-05-16T17:06:47.192Z,101489.88
2019-05-16T17:09:16.663Z,101487.30
2019-05-16T17:11:46.689Z,101497.34
2019-05-16T17:14:17.325Z,101488.95
2019-05-16T17:16:47.516Z,101490.28
2019-05-16T17:19:17.222Z,101489.31
2019-05-16T17:22:02.456Z,101485.50
2019-05-16T17:24:17.791Z,101487.09
2019-05-16T17:26:48.023Z,101480.40
2019-05-16T17:29:17.398Z,101477.92
2019-05-16T17:31:55.521Z,101469.70
2019-05-16T17:34:18.151Z,101477.52
2019-05-16T17:36:47.600Z,101476.48
2019-05-16T17:39:18.247Z,101471.02
2019-05-16T17:41:54.636Z,101476.48
2019-05-16T17:44:20.154Z,101472.47
2019-05-16T17:46:52.748Z,101473.04
2019-05-16T17:49:22.061Z,101474.18
2019-05-16T17:51:51.650Z,101476.19
2019-05-16T17:54:21.138Z,101481.54
2019-05-16T17:56:50.630Z,101472.36
2019-05-16T17:59:20.260Z,101477.63
2019-05-16T18:01:49.686Z,101484.33
2019-05-16T18:04:19.270Z,101484.87
2019-05-16T18:06:48.753Z,101486.47
2019-05-16T18:09:18.203Z,101487.84
2019-05-16T18:11:47.958Z,101488.52
2019-05-16T18:14:17.457Z,101492.92
2019-05-16T18:16:53.807Z,101492.14
2019-05-16T18:19:18.068Z,101492.88
2019-05-16T18:21:47.568Z,101494.43
2019-05-16T18:24:17.033Z,101487.44
2019-05-16T18:26:46.537Z,101486.67
2019-05-16T18:29:16.408Z,101492.70
2019-05-16T18:31:47.166Z,101493.67
2019-05-16T18:34:17.114Z,101497.36
2019-05-16T18:36:47.699Z,101495.81
2019-05-16T18:39:17.173Z,101497.16
2019-05-16T18:41:47.227Z,101499.02
2019-05-16T18:44:16.861Z,101491.02
2019-05-16T18:46:47.179Z,101501.00
2019-05-16T18:49:16.821Z,101496.12
2019-05-16T18:51:46.631Z,101501.44
2019-05-16T18:54:17.370Z,101503.52
2019-05-16T18:56:47.495Z,101508.13
2019-05-16T18:59:17.027Z,101504.03
2019-05-16T19:01:47.125Z,101506.97
2019-05-16T19:04:17.547Z,101503.44
2019-05-16T19:06:47.268Z,101510.80
2019-05-16T19:09:16.783Z,101510.98
2019-05-16T19:11:47.608Z,101506.84
2019-05-16T19:14:17.090Z,101503.55
2019-05-16T19:16:48.989Z,101501.22
2019-05-16T19:19:18.003Z,101497.42
2019-05-16T19:21:47.443Z,101500.17
2019-05-16T19:24:16.868Z,101500.52
2019-05-16T19:26:47.099Z,101505.49
2019-05-16T19:29:17.372Z,101504.53
2019-05-16T19:31:49.905Z,101510.88
2019-05-16T19:34:18.186Z,101511.09
2019-05-16T19:36:47.587Z,101504.81
2019-05-16T19:39:16.990Z,101509.56
2019-05-16T19:41:47.509Z,101501.80
2019-05-16T19:44:16.962Z,101504.80
2019-05-16T19:46:46.932Z,101505.48
2019-05-16T19:49:16.736Z,101508.69
2019-05-16T19:51:48.978Z,101510.71
2019-05-16T19:54:17.606Z,101515.24
2019-05-16T19:56:47.098Z,101511.17
2019-05-16T19:59:16.962Z,101507.53
2019-05-16T20:01:46.578Z,101517.73
2019-05-16T20:04:18.463Z,101517.41
2019-05-16T20:06:47.583Z,101510.86
2019-05-16T20:09:17.133Z,101508.03
2019-05-16T20:11:46.558Z,101503.44
2019-05-16T20:14:19.448Z,101512.66
2019-05-16T20:16:47.535Z,101506.40
2019-05-16T20:19:17.029Z,101499.07
2019-05-16T20:21:47.620Z,101503.95
2019-05-16T20:24:17.179Z,101504.67
2019-05-16T20:26:46.766Z,101505.57
2019-05-16T20:29:17.222Z,101502.34
2019-05-16T20:31:47.645Z,101499.02
2019-05-16T20:34:17.963Z,101497.67
2019-05-16T20:36:49.542Z,101504.92
2019-05-16T20:39:20.102Z,101493.26
2019-05-16T20:41:49.732Z,101493.35
2019-05-16T20:44:19.119Z,101500.63
2019-05-16T20:46:49.641Z,101498.23
2019-05-16T20:49:19.464Z,101494.86
2019-05-16T20:51:50.058Z,101500.61
2019-05-16T20:54:20.190Z,101494.58
2019-05-16T20:56:49.783Z,101493.80
2019-05-16T20:59:19.143Z,101495.19
2019-05-16T21:01:49.213Z,101498.64
2019-05-16T21:04:18.846Z,101494.45
2019-05-16T21:07:00.621Z,101486.64
2019-05-16T21:09:19.430Z,101487.73
2019-05-16T21:11:50.048Z,101484.13
2019-05-16T21:14:20.903Z,101483.97
2019-05-16T21:16:50.308Z,101488.70
2019-05-16T21:19:19.864Z,101486.31
2019-05-16T21:21:49.275Z,101477.97
2019-05-16T21:24:18.934Z,101471.28
2019-05-16T21:26:48.391Z,101473.28
2019-05-16T21:29:19.572Z,101469.05
2019-05-16T21:31:48.995Z,101470.91
2019-05-16T21:34:19.178Z,101478.05
2019-05-16T21:36:48.839Z,101464.08
2019-05-16T21:39:18.367Z,101467.71
2019-05-16T21:41:47.918Z,101462.02
2019-05-16T21:44:17.441Z,101460.59
2019-05-16T21:46:47.152Z,101452.05
2019-05-16T21:49:19.491Z,101446.63
2019-05-16T21:51:47.835Z,101446.63
2019-05-16T21:54:17.221Z,101453.53
2019-05-16T21:56:47.238Z,101450.52
2019-05-16T21:59:16.726Z,101450.39
2019-05-16T22:01:47.280Z,101440.17
2019-05-16T22:04:16.952Z,101440.17
2019-05-16T22:06:47.495Z,101433.77
2019-05-16T22:09:17.210Z,101437.37
2019-05-16T22:11:46.759Z,101426.80
2019-05-16T22:14:22.531Z,101427.98
2019-05-16T22:16:51.992Z,101428.84
2019-05-16T22:19:21.625Z,101422.55
2019-05-16T22:21:51.064Z,101427.02
2019-05-16T22:24:20.703Z,101419.09
2019-05-16T22:26:50.374Z,101416.42
2019-05-16T22:29:19.914Z,101405.54
2019-05-16T22:31:49.312Z,101407.94
2019-05-16T22:34:18.995Z,101401.28
2019-05-16T22:36:49.335Z,101396.49
2019-05-16T22:39:19.020Z,101402.28
2019-05-16T22:41:49.219Z,101400.53
2019-05-16T22:44:18.673Z,101389.13
2019-05-16T22:46:48.103Z,101388.25
2019-05-16T22:49:17.612Z,101390.62
2019-05-16T22:51:47.082Z,101388.34
2019-05-16T22:54:17.194Z,101390.68
2019-05-16T22:56:47.010Z,101381.44
2019-05-16T22:59:16.695Z,101385.61
2019-05-16T23:01:46.406Z,101383.34
2019-05-16T23:04:16.753Z,101381.47
2019-05-16T23:06:46.471Z,101379.25
2019-05-16T23:09:16.436Z,101376.81
2019-05-16T23:11:46.109Z,101365.30
2019-05-16T23:14:17.056Z,101365.09
2019-05-16T23:16:46.701Z,101357.32
2019-05-16T23:19:17.248Z,101367.17
2019-05-16T23:21:47.436Z,101365.31
2019-05-16T23:24:17.387Z,101358.68
2019-05-16T23:26:47.150Z,101368.06
2019-05-16T23:29:17.112Z,101360.05
2019-05-16T23:31:47.313Z,101358.68
2019-05-16T23:34:18.800Z,101363.16
2019-05-16T23:36:48.353Z,101356.72
2019-05-16T23:39:17.837Z,101353.59
2019-05-16T23:41:47.574Z,101346.78
2019-05-16T23:44:16.939Z,101339.36
2019-05-16T23:46:47.063Z,101348.83
2019-05-16T23:49:17.048Z,101342.70
2019-05-16T23:51:47.359Z,101340.16
2019-05-16T23:54:17.378Z,101341.09
2019-05-16T23:56:46.950Z,101335.75
2019-05-16T23:59:17.172Z,101340.16
